createdAt,value
2019-02-24T00:01:00.939Z,4.90
2019-02-24T00:03:29.794Z,4.80
2019-02-24T00:05:58.624Z,4.80
2019-02-24T00:08:27.513Z,4.80
2019-02-24T00:10:56.334Z,4.80
2019-02-24T00:13:25.245Z,4.70
2019-02-24T00:15:54.098Z,4.70
2019-02-24T00:18:22.962Z,4.70
2019-02-24T00:20:51.777Z,4.70
2019-02-24T00:23:20.696Z,4.60
2019-02-24T00:25:49.567Z,4.60
2019-02-24T00:28:18.461Z,4.60
2019-02-24T00:30:47.373Z,4.60
2019-02-24T00:33:16.275Z,4.50
2019-02-24T00:35:45.076Z,4.50
2019-02-24T00:38:13.997Z,4.50
2019-02-24T00:40:42.929Z,4.50
2019-02-24T00:43:11.734Z,4.40
2019-02-24T00:45:40.562Z,4.40
2019-02-24T00:48:09.366Z,4.40
2019-02-24T00:50:38.199Z,4.40
2019-02-24T00:53:07.014Z,4.30
2019-02-24T00:55:35.845Z,4.30
2019-02-24T00:58:04.753Z,4.30
2019-02-24T01:00:33.745Z,4.30
2019-02-24T01:03:02.747Z,4.30
2019-02-24T01:05:31.733Z,4.20
2019-02-24T01:08:00.542Z,4.20
2019-02-24T01:10:29.508Z,4.20
2019-02-24T01:12:58.343Z,4.20
2019-02-24T01:15:27.173Z,4.10
2019-02-24T01:17:56.022Z,4.10
2019-02-24T01:20:24.999Z,4.10
2019-02-24T01:22:53.986Z,4.10
2019-02-24T01:25:22.892Z,4.00
2019-02-24T01:27:51.888Z,4.00
2019-02-24T01:30:20.770Z,4.00
2019-02-24T01:32:49.657Z,4.00
2019-02-24T01:35:18.574Z,4.00
2019-02-24T01:37:47.413Z,3.90
2019-02-24T01:40:16.305Z,3.90
2019-02-24T01:42:45.221Z,3.90
2019-02-24T01:45:14.081Z,3.90
2019-02-24T01:47:42.910Z,3.90
2019-02-24T01:50:11.810Z,3.80
2019-02-24T01:52:40.689Z,3.80
2019-02-24T01:55:09.642Z,3.80
2019-02-24T01:57:38.467Z,3.80
2019-02-24T02:00:08.178Z,3.80
2019-02-24T02:02:37.088Z,3.80
2019-02-24T02:05:06.801Z,3.70
2019-02-24T02:07:35.707Z,3.70
2019-02-24T02:10:04.662Z,3.70
2019-02-24T02:12:33.465Z,3.70
2019-02-24T02:15:02.459Z,3.70
2019-02-24T02:17:31.293Z,3.60
2019-02-24T02:20:00.274Z,3.60
2019-02-24T02:22:29.619Z,3.60
2019-02-24T02:24:58.501Z,3.60
2019-02-24T02:27:27.414Z,3.60
2019-02-24T02:29:56.222Z,3.60
2019-02-24T02:32:25.246Z,3.50
2019-02-24T02:34:54.163Z,3.50
2019-02-24T02:37:23.077Z,3.50
2019-02-24T02:39:51.902Z,3.50
2019-02-24T02:42:20.731Z,3.40
2019-02-24T02:44:49.640Z,3.40
2019-02-24T02:47:18.462Z,3.40
2019-02-24T02:49:47.354Z,3.40
2019-02-24T02:52:16.251Z,3.40
2019-02-24T02:54:45.143Z,3.30
2019-02-24T02:57:13.984Z,3.30
2019-02-24T02:59:42.805Z,3.30
2019-02-24T03:02:11.716Z,3.30
2019-02-24T03:04:40.622Z,3.30
2019-02-24T03:07:33.690Z,3.20
2019-02-24T03:10:02.933Z,3.20
2019-02-24T03:12:32.045Z,3.20
2019-02-24T03:15:00.980Z,3.20
2019-02-24T03:17:30.018Z,3.20
2019-02-24T03:19:58.849Z,3.20
2019-02-24T03:22:27.718Z,3.10
2019-02-24T03:24:56.625Z,3.10
2019-02-24T03:27:25.456Z,3.10
2019-02-24T03:29:54.286Z,3.10
2019-02-24T03:32:23.326Z,3.10
2019-02-24T03:34:52.243Z,3.10
2019-02-24T03:37:21.355Z,3.10
2019-02-24T03:39:50.166Z,3.00
2019-02-24T03:42:18.998Z,3.00
2019-02-24T03:44:47.890Z,3.00
2019-02-24T03:47:16.835Z,3.00
2019-02-24T03:49:45.717Z,3.00
2019-02-24T03:52:14.607Z,2.90
2019-02-24T03:54:43.517Z,2.90
2019-02-24T03:57:12.738Z,2.90
2019-02-24T03:59:41.647Z,2.90
2019-02-24T04:02:10.567Z,2.90
2019-02-24T04:04:39.476Z,2.90
2019-02-24T04:07:08.320Z,2.80
2019-02-24T04:09:37.475Z,2.80
2019-02-24T04:12:06.362Z,2.80
2019-02-24T04:14:35.189Z,2.80
2019-02-24T04:17:04.098Z,2.80
2019-02-24T04:19:32.963Z,2.70
2019-02-24T04:22:01.839Z,2.70
2019-02-24T04:24:30.671Z,2.70
2019-02-24T04:26:59.489Z,2.70
2019-02-24T04:29:28.694Z,2.70
2019-02-24T04:31:57.529Z,2.70
2019-02-24T04:34:26.462Z,2.60
2019-02-24T04:36:55.310Z,2.60
2019-02-24T04:39:24.141Z,2.60
2019-02-24T04:41:53.002Z,2.60
2019-02-24T04:44:21.921Z,2.60
2019-02-24T04:46:50.746Z,2.50
2019-02-24T04:49:19.578Z,2.50
2019-02-24T04:51:48.417Z,2.50
2019-02-24T04:54:17.265Z,2.50
2019-02-24T04:56:46.177Z,2.50
2019-02-24T04:59:15.038Z,2.50
2019-02-24T05:01:43.881Z,2.40
2019-02-24T05:04:12.809Z,2.40
2019-02-24T05:06:41.718Z,2.40
2019-02-24T05:09:10.638Z,2.40
2019-02-24T05:11:39.466Z,2.40
2019-02-24T05:14:08.354Z,2.30
2019-02-24T05:16:37.207Z,2.30
2019-02-24T05:19:06.027Z,2.30
2019-02-24T05:21:34.855Z,2.30
2019-02-24T05:24:03.685Z,2.30
2019-02-24T05:26:32.506Z,2.30
2019-02-24T05:29:01.354Z,2.20
2019-02-24T05:31:30.298Z,2.20
2019-02-24T05:33:59.266Z,2.20
2019-02-24T05:36:28.117Z,2.20
2019-02-24T05:38:56.942Z,2.20
2019-02-24T05:41:25.778Z,2.10
2019-02-24T05:43:54.697Z,2.20
2019-02-24T05:46:23.515Z,2.10
2019-02-24T05:48:52.499Z,2.10
2019-02-24T05:51:21.333Z,2.10
2019-02-24T05:53:50.159Z,2.10
2019-02-24T05:56:18.998Z,2.10
2019-02-24T05:58:47.827Z,2.10
2019-02-24T06:01:16.738Z,2.10
2019-02-24T06:03:45.554Z,2.10
2019-02-24T06:06:14.496Z,2.00
2019-02-24T06:08:43.371Z,2.00
2019-02-24T06:11:12.259Z,2.00
2019-02-24T06:13:41.101Z,2.00
2019-02-24T06:16:10.006Z,2.00
2019-02-24T06:18:38.875Z,2.00
2019-02-24T06:21:07.697Z,1.90
2019-02-24T06:23:36.663Z,1.90
2019-02-24T06:26:05.475Z,1.90
2019-02-24T06:28:34.290Z,1.90
2019-02-24T06:31:03.197Z,1.90
2019-02-24T06:33:32.013Z,1.90
2019-02-24T06:36:01.019Z,1.90
2019-02-24T06:38:29.845Z,1.90
2019-02-24T06:40:59.965Z,1.80
2019-02-24T06:43:29.151Z,1.80
2019-02-24T06:45:57.983Z,1.80
2019-02-24T06:48:27.348Z,1.80
2019-02-24T06:51:05.224Z,1.80
2019-02-24T06:53:34.066Z,1.70
2019-02-24T06:56:02.957Z,1.80
2019-02-24T06:58:32.027Z,1.70
2019-02-24T07:01:00.921Z,1.70
2019-02-24T07:03:29.833Z,1.70
2019-02-24T07:05:58.705Z,1.70
2019-02-24T07:08:27.613Z,1.70
2019-02-24T07:10:56.462Z,1.70
2019-02-24T07:13:25.452Z,1.70
2019-02-24T07:15:54.303Z,1.70
2019-02-24T07:18:23.179Z,1.70
2019-02-24T07:20:52.091Z,1.60
2019-02-24T07:23:21.113Z,1.60
2019-02-24T07:25:49.973Z,1.60
2019-02-24T07:28:18.793Z,1.60
2019-02-24T07:30:47.765Z,1.60
2019-02-24T07:33:16.743Z,1.60
2019-02-24T07:35:45.638Z,1.60
2019-02-24T07:38:14.541Z,1.60
2019-02-24T07:40:43.533Z,1.60
2019-02-24T07:43:12.377Z,1.60
2019-02-24T07:45:41.211Z,1.60
2019-02-24T07:48:10.084Z,1.60
2019-02-24T07:50:39.075Z,1.60
2019-02-24T07:53:07.969Z,1.60
2019-02-24T07:55:37.022Z,1.60
2019-02-24T07:58:06.071Z,1.60
2019-02-24T08:00:34.968Z,1.70
2019-02-24T08:03:03.974Z,1.60
2019-02-24T08:05:32.937Z,1.60
2019-02-24T08:08:02.543Z,1.70
2019-02-24T08:10:31.598Z,1.70
2019-02-24T08:13:00.438Z,1.70
2019-02-24T08:15:29.321Z,1.70
2019-02-24T08:17:58.323Z,1.70
2019-02-24T08:20:27.338Z,1.70
2019-02-24T08:22:56.248Z,1.70
2019-02-24T08:25:25.088Z,1.70
2019-02-24T08:27:55.539Z,1.80
2019-02-24T08:30:24.642Z,1.80
2019-02-24T08:32:53.561Z,1.80
2019-02-24T08:35:22.670Z,1.80
2019-02-24T08:37:51.511Z,1.90
2019-02-24T08:40:20.553Z,1.90
2019-02-24T08:42:49.533Z,1.90
2019-02-24T08:45:18.443Z,2.00
2019-02-24T08:47:47.578Z,2.00
2019-02-24T08:50:16.480Z,2.00
2019-02-24T08:52:46.486Z,2.10
2019-02-24T08:55:16.038Z,2.10
2019-02-24T08:57:45.052Z,2.10
2019-02-24T09:00:14.583Z,2.20
2019-02-24T09:02:43.562Z,2.20
2019-02-24T09:05:12.533Z,2.30
2019-02-24T09:07:41.377Z,2.30
2019-02-24T09:10:10.376Z,2.40
2019-02-24T09:12:39.210Z,2.50
2019-02-24T09:15:08.954Z,2.60
2019-02-24T09:17:37.842Z,2.60
2019-02-24T09:20:07.648Z,2.70
2019-02-24T09:22:36.746Z,2.80
2019-02-24T09:25:05.946Z,2.90
2019-02-24T09:27:34.854Z,3.00
2019-02-24T09:30:04.033Z,3.00
2019-02-24T09:32:33.005Z,3.10
2019-02-24T09:35:01.901Z,3.20
2019-02-24T09:37:30.766Z,3.30
2019-02-24T09:39:59.709Z,3.40
2019-02-24T09:42:28.542Z,3.60
2019-02-24T09:44:57.351Z,3.70
2019-02-24T09:47:26.266Z,3.80
2019-02-24T09:49:55.073Z,3.90
2019-02-24T09:52:23.921Z,4.00
2019-02-24T09:54:52.821Z,4.10
2019-02-24T09:57:21.841Z,4.20
2019-02-24T09:59:50.722Z,4.30
2019-02-24T10:02:19.556Z,4.40
2019-02-24T10:04:48.476Z,4.50
2019-02-24T10:07:17.362Z,4.60
2019-02-24T10:09:46.210Z,4.60
2019-02-24T10:12:15.096Z,4.70
2019-02-24T10:14:44.106Z,4.80
2019-02-24T10:17:13.250Z,4.90
2019-02-24T10:19:42.127Z,5.00
2019-02-24T10:22:11.132Z,5.00
2019-02-24T10:24:40.013Z,5.10
2019-02-24T10:27:08.942Z,5.20
2019-02-24T10:29:37.763Z,5.30
2019-02-24T10:32:06.667Z,5.50
2019-02-24T10:34:35.594Z,5.60
2019-02-24T10:37:04.692Z,5.70
2019-02-24T10:39:33.638Z,5.80
2019-02-24T10:42:02.492Z,5.90
2019-02-24T10:44:31.533Z,6.00
2019-02-24T10:47:02.252Z,6.10
2019-02-24T10:49:31.069Z,6.10
2019-02-24T10:52:06.204Z,6.30
2019-02-24T10:54:35.043Z,6.30
2019-02-24T10:57:03.953Z,6.40
2019-02-24T10:59:33.073Z,6.50
2019-02-24T11:02:02.058Z,6.60
2019-02-24T11:04:30.904Z,6.70
2019-02-24T11:06:59.742Z,6.80
2019-02-24T11:09:28.578Z,6.90
2019-02-24T11:11:57.571Z,7.00
2019-02-24T11:14:26.410Z,7.10
2019-02-24T11:16:55.498Z,7.30
2019-02-24T11:19:24.481Z,7.40
2019-02-24T11:21:53.479Z,7.40
2019-02-24T11:24:22.715Z,7.50
2019-02-24T11:26:51.723Z,7.60
2019-02-24T11:29:20.720Z,7.70
2019-02-24T11:31:49.625Z,7.80
2019-02-24T11:34:18.534Z,7.90
2019-02-24T11:36:47.354Z,8.00
2019-02-24T11:39:16.274Z,8.20
2019-02-24T11:41:45.184Z,8.30
2019-02-24T11:44:14.102Z,8.40
2019-02-24T11:46:43.117Z,8.40
2019-02-24T11:49:11.970Z,8.60
2019-02-24T11:51:40.817Z,8.60
2019-02-24T11:54:09.653Z,8.70
2019-02-24T11:56:38.490Z,8.90
2019-02-24T11:59:07.293Z,9.00
2019-02-24T12:01:36.217Z,9.10
2019-02-24T12:04:05.264Z,9.20
2019-02-24T12:06:34.229Z,9.20
2019-02-24T12:09:05.419Z,9.30
2019-02-24T12:11:37.719Z,9.50
2019-02-24T12:14:06.832Z,9.60
2019-02-24T12:16:35.746Z,9.70
2019-02-24T12:19:04.745Z,9.80
2019-02-24T12:21:33.636Z,9.90
2019-02-24T12:24:17.561Z,10.00
2019-02-24T12:26:46.706Z,10.10
2019-02-24T12:29:15.685Z,10.20
2019-02-24T12:31:44.616Z,10.30
2019-02-24T12:34:13.638Z,10.40
2019-02-24T12:36:42.606Z,10.50
2019-02-24T12:39:11.441Z,10.60
2019-02-24T12:41:40.488Z,10.70
2019-02-24T12:44:09.309Z,10.80
2019-02-24T12:46:38.191Z,10.80
2019-02-24T12:49:07.024Z,10.90
2019-02-24T12:51:35.942Z,11.00
2019-02-24T12:54:04.978Z,11.10
2019-02-24T12:56:33.965Z,11.20
2019-02-24T12:59:03.020Z,11.20
2019-02-24T13:01:32.039Z,11.30
2019-02-24T13:04:00.946Z,11.40
2019-02-24T13:06:29.823Z,11.50
2019-02-24T13:08:58.657Z,11.60
2019-02-24T13:11:27.667Z,11.60
2019-02-24T13:13:56.498Z,11.70
2019-02-24T13:16:25.418Z,11.70
2019-02-24T13:18:54.353Z,11.80
2019-02-24T13:21:23.343Z,11.90
2019-02-24T13:23:52.247Z,12.00
2019-02-24T13:26:21.098Z,12.00
2019-02-24T13:29:09.306Z,12.10
2019-02-24T13:31:38.301Z,12.20
2019-02-24T13:34:07.129Z,12.20
2019-02-24T13:36:35.991Z,12.30
2019-02-24T13:39:05.815Z,12.30
2019-02-24T13:41:34.778Z,12.40
2019-02-24T13:44:03.947Z,12.40
2019-02-24T13:46:32.859Z,12.50
2019-02-24T13:49:01.708Z,12.60
2019-02-24T13:51:30.582Z,12.60
2019-02-24T13:53:59.435Z,12.70
2019-02-24T13:56:28.458Z,12.70
2019-02-24T13:58:57.331Z,12.80
2019-02-24T14:01:26.146Z,12.80
2019-02-24T14:03:55.059Z,12.90
2019-02-24T14:06:23.939Z,12.90
2019-02-24T14:08:52.966Z,13.00
2019-02-24T14:11:21.860Z,13.10
2019-02-24T14:13:50.715Z,13.10
2019-02-24T14:16:19.566Z,13.20
2019-02-24T14:18:49.976Z,13.20
2019-02-24T14:21:19.273Z,13.30
2019-02-24T14:23:48.102Z,13.40
2019-02-24T14:26:17.010Z,13.40
2019-02-24T14:28:45.904Z,13.50
2019-02-24T14:31:14.982Z,13.50
2019-02-24T14:33:43.899Z,13.50
2019-02-24T14:36:12.914Z,13.60
2019-02-24T14:38:41.757Z,13.70
2019-02-24T14:41:10.762Z,13.70
2019-02-24T14:43:39.706Z,13.80
2019-02-24T14:46:11.721Z,13.90
2019-02-24T14:48:41.980Z,13.90
2019-02-24T14:51:10.888Z,13.90
2019-02-24T14:53:39.822Z,14.00
2019-02-24T14:56:08.710Z,14.00
2019-02-24T14:58:37.558Z,14.00
2019-02-24T15:01:06.711Z,14.10
2019-02-24T15:03:36.102Z,14.10
2019-02-24T15:06:05.093Z,14.10
2019-02-24T15:08:34.114Z,14.10
2019-02-24T15:11:03.120Z,14.10
2019-02-24T15:13:32.101Z,14.20
2019-02-24T15:16:01.137Z,14.20
2019-02-24T15:18:30.086Z,14.20
2019-02-24T15:20:59.092Z,14.20
2019-02-24T15:23:27.897Z,14.20
2019-02-24T15:25:56.776Z,14.20
2019-02-24T15:28:25.619Z,14.20
2019-02-24T15:30:54.462Z,14.20
2019-02-24T15:33:23.518Z,14.20
2019-02-24T15:35:52.337Z,14.20
2019-02-24T15:38:21.279Z,14.10
2019-02-24T15:40:50.296Z,14.10
2019-02-24T15:43:19.232Z,14.10
2019-02-24T15:45:48.129Z,14.10
2019-02-24T15:48:17.100Z,14.10
2019-02-24T15:50:45.931Z,14.10
2019-02-24T15:53:15.791Z,14.10
2019-02-24T15:55:44.702Z,14.00
2019-02-24T15:58:13.681Z,14.00
2019-02-24T16:00:42.519Z,14.00
2019-02-24T16:03:11.424Z,14.00
2019-02-24T16:05:40.290Z,14.00
2019-02-24T16:08:09.209Z,13.90
2019-02-24T16:10:38.063Z,13.90
2019-02-24T16:13:06.912Z,13.90
2019-02-24T16:15:36.006Z,13.80
2019-02-24T16:18:05.098Z,13.80
2019-02-24T16:20:34.090Z,13.80
2019-02-24T16:23:03.106Z,13.70
2019-02-24T16:25:32.162Z,13.70
2019-02-24T16:28:00.999Z,13.70
2019-02-24T16:30:30.159Z,13.60
2019-02-24T16:32:59.034Z,13.60
2019-02-24T16:35:27.970Z,13.60
2019-02-24T16:37:56.814Z,13.60
2019-02-24T16:40:25.773Z,13.50
2019-02-24T16:42:54.765Z,13.50
2019-02-24T16:45:23.741Z,13.40
2019-02-24T16:47:52.758Z,13.40
2019-02-24T16:50:22.750Z,13.40
2019-02-24T16:52:51.740Z,13.30
2019-02-24T16:55:21.071Z,13.30
2019-02-24T16:57:49.958Z,13.20
2019-02-24T17:00:19.555Z,13.20
2019-02-24T17:02:48.823Z,13.10
2019-02-24T17:05:17.835Z,13.10
2019-02-24T17:07:49.117Z,13.00
2019-02-24T17:10:18.789Z,13.00
2019-02-24T17:12:47.845Z,12.90
2019-02-24T17:15:16.841Z,12.90
2019-02-24T17:17:45.733Z,12.80
2019-02-24T17:20:15.902Z,12.80
2019-02-24T17:22:44.885Z,12.70
2019-02-24T17:25:13.879Z,12.60
2019-02-24T17:27:42.736Z,12.60
2019-02-24T17:30:12.868Z,12.50
2019-02-24T17:32:41.850Z,12.40
2019-02-24T17:35:10.893Z,12.40
2019-02-24T17:37:39.944Z,12.30
2019-02-24T17:40:10.495Z,12.20
2019-02-24T17:42:39.336Z,12.20
2019-02-24T17:45:10.097Z,12.10
2019-02-24T17:47:39.129Z,12.00
2019-02-24T17:50:09.561Z,12.00
2019-02-24T17:52:38.482Z,11.90
2019-02-24T17:55:08.813Z,11.80
2019-02-24T17:57:37.740Z,11.80
2019-02-24T18:00:10.889Z,11.70
2019-02-24T18:02:39.889Z,11.60
2019-02-24T18:05:08.873Z,11.60
2019-02-24T18:07:37.710Z,11.50
2019-02-24T18:10:06.669Z,11.40
2019-02-24T18:12:35.563Z,11.40
2019-02-24T18:15:04.676Z,11.30
2019-02-24T18:17:33.620Z,11.30
2019-02-24T18:20:02.625Z,11.20
2019-02-24T18:22:31.566Z,11.10
2019-02-24T18:25:03.252Z,11.00
2019-02-24T18:27:31.153Z,11.00
2019-02-24T18:29:59.979Z,10.90
2019-02-24T18:32:29.012Z,10.80
2019-02-24T18:34:57.980Z,10.70
2019-02-24T18:37:26.913Z,10.70
2019-02-24T18:39:55.741Z,10.60
2019-02-24T18:42:24.575Z,10.50
2019-02-24T18:44:53.529Z,10.50
2019-02-24T18:47:22.753Z,10.40
2019-02-24T18:49:51.801Z,10.30
2019-02-24T18:52:20.697Z,10.30
2019-02-24T18:54:49.513Z,10.20
2019-02-24T18:57:18.508Z,10.10
2019-02-24T18:59:47.355Z,10.10
2019-02-24T19:02:16.265Z,10.00
2019-02-24T19:04:45.174Z,9.90
2019-02-24T19:07:17.194Z,9.80
2019-02-24T19:09:46.114Z,9.80
2019-02-24T19:12:15.053Z,9.70
2019-02-24T19:14:43.965Z,9.70
2019-02-24T19:17:12.789Z,9.70
2019-02-24T19:19:41.714Z,9.60
2019-02-24T19:22:10.543Z,9.50
2019-02-24T19:24:39.405Z,9.50
2019-02-24T19:27:08.395Z,9.40
2019-02-24T19:29:37.298Z,9.30
2019-02-24T19:32:06.304Z,9.30
2019-02-24T19:34:35.128Z,9.30
2019-02-24T19:37:04.138Z,9.20
2019-02-24T19:39:32.978Z,9.10
2019-02-24T19:42:01.793Z,9.10
2019-02-24T19:44:30.922Z,9.00
2019-02-24T19:47:01.609Z,9.00
2019-02-24T19:49:30.522Z,8.90
2019-02-24T19:51:59.387Z,8.90
2019-02-24T19:54:28.294Z,8.80
2019-02-24T19:56:57.263Z,8.80
2019-02-24T19:59:26.117Z,8.70
2019-02-24T20:01:55.026Z,8.70
2019-02-24T20:04:23.970Z,8.60
2019-02-24T20:06:52.846Z,8.60
2019-02-24T20:09:21.872Z,8.50
2019-02-24T20:11:50.706Z,8.50
2019-02-24T20:14:19.597Z,8.40
2019-02-24T20:16:48.445Z,8.40
2019-02-24T20:19:17.357Z,8.30
2019-02-24T20:21:46.398Z,8.30
2019-02-24T20:24:15.249Z,8.20
2019-02-24T20:26:44.269Z,8.20
2019-02-24T20:29:13.126Z,8.20
2019-02-24T20:31:42.033Z,8.10
2019-02-24T20:34:10.890Z,8.00
2019-02-24T20:36:39.773Z,8.00
2019-02-24T20:39:08.871Z,8.00
2019-02-24T20:41:37.786Z,7.90
2019-02-24T20:44:06.701Z,7.90
2019-02-24T20:46:35.667Z,7.80
2019-02-24T20:49:04.728Z,7.70
2019-02-24T20:51:33.653Z,7.60
2019-02-24T20:54:02.597Z,7.60
2019-02-24T20:56:31.665Z,7.50
2019-02-24T20:59:00.599Z,7.50
2019-02-24T21:01:29.474Z,7.50
2019-02-24T21:03:58.342Z,7.40
2019-02-24T21:06:27.298Z,7.40
2019-02-24T21:08:56.162Z,7.30
2019-02-24T21:11:25.061Z,7.30
2019-02-24T21:13:53.972Z,7.30
2019-02-24T21:16:22.977Z,7.20
2019-02-24T21:18:51.906Z,7.20
2019-02-24T21:21:20.897Z,7.20
2019-02-24T21:23:49.773Z,7.10
2019-02-24T21:26:18.692Z,7.00
2019-02-24T21:28:48.921Z,7.00
2019-02-24T21:31:17.986Z,6.90
2019-02-24T21:33:46.871Z,6.90
2019-02-24T21:36:15.861Z,6.80
2019-02-24T21:38:44.685Z,6.80
2019-02-24T21:41:13.581Z,6.80
2019-02-24T21:43:42.422Z,6.70
2019-02-24T21:46:11.250Z,6.70
2019-02-24T21:48:40.190Z,6.70
2019-02-24T21:51:09.198Z,6.60
2019-02-24T21:53:38.114Z,6.60
2019-02-24T21:56:07.086Z,6.60
2019-02-24T21:58:35.925Z,6.50
2019-02-24T22:01:06.514Z,6.50
2019-02-24T22:03:35.371Z,6.40
2019-02-24T22:06:04.259Z,6.40
2019-02-24T22:08:33.213Z,6.40
2019-02-24T22:11:02.257Z,6.40
2019-02-24T22:13:31.081Z,6.30
2019-02-24T22:15:59.929Z,6.30
2019-02-24T22:18:28.762Z,6.30
2019-02-24T22:20:57.739Z,6.20
2019-02-24T22:23:26.589Z,6.20
2019-02-24T22:25:55.389Z,6.20
2019-02-24T22:28:24.217Z,6.10
2019-02-24T22:30:53.180Z,6.10
2019-02-24T22:33:22.042Z,6.10
2019-02-24T22:35:51.029Z,6.10
2019-02-24T22:38:19.997Z,6.00
2019-02-24T22:40:54.329Z,6.00
2019-02-24T22:43:19.486Z,6.00
2019-02-24T22:45:48.345Z,6.00
2019-02-24T22:48:17.572Z,5.90
2019-02-24T22:50:47.059Z,5.90
2019-02-24T22:53:15.995Z,5.90
2019-02-24T22:55:44.822Z,5.90
2019-02-24T22:58:13.753Z,5.90
2019-02-24T23:01:02.500Z,5.80
2019-02-24T23:03:42.878Z,5.80
2019-02-24T23:06:11.855Z,5.80
2019-02-24T23:08:40.682Z,5.80
2019-02-24T23:11:09.584Z,5.80
2019-02-24T23:13:39.374Z,5.70
2019-02-24T23:16:08.618Z,5.70
2019-02-24T23:18:37.594Z,5.70
2019-02-24T23:21:06.553Z,5.70
2019-02-24T23:23:35.552Z,5.60
2019-02-24T23:26:04.513Z,5.60
2019-02-24T23:28:33.344Z,5.60
2019-02-24T23:31:02.257Z,5.60
2019-02-24T23:33:31.168Z,5.50
2019-02-24T23:36:00.361Z,5.50
2019-02-24T23:38:29.230Z,5.50
2019-02-24T23:40:58.199Z,5.50
2019-02-24T23:43:27.028Z,5.40
2019-02-24T23:45:56.025Z,5.40
2019-02-24T23:48:24.846Z,5.40
2019-02-24T23:50:53.760Z,5.40
2019-02-24T23:53:22.601Z,5.30
2019-02-24T23:55:51.516Z,5.30
2019-02-24T23:58:20.480Z,5.30
